Time;durP1;ratioP1;P1;durP2;ratioP2;P2;SDS_P1;SDS_P2;PMS_P1;PMS_P2;Temp;Humidity;BMP_temperature;BMP_pressure;BME280_temperature;BME280_humidity;BME280_pressure;Samples;Min_cycle;Max_cycle;Signal;HPM_P1;HPM_P2
2024/02/27 00:01:24;;;;;;;40.60;25.20;;;;;;;9.90;68.82;98445.63;232331;201;138060;-61
2024/02/27 00:06:30;;;;;;;38.90;23.70;;;;;;;9.88;69.12;98449.87;232410;204;138154;-63
2024/02/27 00:11:34;;;;;;;38.90;24.80;;;;;;;9.89;68.95;98449.45;232463;204;154288;-63
2024/02/27 00:16:38;;;;;;;51.40;27.80;;;;;;;9.88;68.87;98450.57;232206;204;138346;-62
2024/02/27 00:21:41;;;;;;;53.50;29.40;;;;;;;9.90;68.74;98454.48;232295;200;138529;-63
2024/02/27 00:26:44;;;;;;;52.40;29.90;;;;;;;9.87;68.61;98460.02;231456;201;152999;-61
2024/02/27 00:31:48;;;;;;;51.80;30.40;;;;;;;9.79;68.36;98461.84;232182;204;137274;-62
2024/02/27 00:36:51;;;;;;;46.40;31.20;;;;;;;9.71;68.23;98462.16;232362;204;138264;-59
2024/02/27 00:41:57;;;;;;;45.10;29.60;;;;;;;9.64;68.31;98467.46;232184;202;154284;-59
2024/02/27 00:47:00;;;;;;;47.80;31.40;;;;;;;9.58;68.31;98470.84;232399;201;137699;-59
2024/02/27 00:52:05;;;;;;;49.00;29.70;;;;;;;9.51;68.36;98473.80;232252;204;138408;-59
2024/02/27 00:57:08;;;;;;;43.50;29.00;;;;;;;9.42;68.63;98473.67;232170;204;155590;-60
2024/02/27 01:02:11;;;;;;;49.30;29.90;;;;;;;9.36;68.82;98477.10;232191;201;138177;-60
2024/02/27 01:07:14;;;;;;;49.40;29.10;;;;;;;9.28;68.96;98482.77;232305;204;138597;-60
2024/02/27 01:12:18;;;;;;;42.20;28.20;;;;;;;9.23;68.88;98480.60;232338;204;153248;-60
2024/02/27 01:17:22;;;;;;;43.80;27.60;;;;;;;9.17;69.20;98474.98;232450;200;138305;-59
2024/02/27 01:22:27;;;;;;;49.60;30.00;;;;;;;9.18;69.27;98477.38;232250;204;138357;-60
2024/02/27 01:27:30;;;;;;;51.30;31.30;;;;;;;9.25;69.26;98483.53;232318;204;153268;-59
2024/02/27 01:32:33;;;;;;;50.20;32.10;;;;;;;9.25;69.03;98482.61;232263;200;138905;-59
2024/02/27 01:37:36;;;;;;;52.00;33.70;;;;;;;9.20;69.03;98473.34;232292;201;141051;-59
2024/02/27 01:42:44;;;;;;;51.70;32.30;;;;;;;9.16;69.38;98470.96;232248;204;153684;-60
2024/02/27 01:47:50;;;;;;;49.80;30.50;;;;;;;9.14;69.55;98454.52;232166;197;138369;-60
2024/02/27 01:52:53;;;;;;;47.20;29.40;;;;;;;9.16;69.86;98460.02;232331;204;140928;-60
2024/02/27 01:57:56;;;;;;;46.60;28.30;;;;;;;9.18;70.31;98456.35;232218;204;153538;-59
2024/02/27 02:03:01;;;;;;;42.70;27.00;;;;;;;9.19;70.42;98461.38;232141;200;141018;-59
2024/02/27 02:08:05;;;;;;;45.50;27.00;;;;;;;9.22;70.84;98465.83;232251;204;137409;-60
2024/02/27 02:13:10;;;;;;;36.90;24.30;;;;;;;9.26;70.76;98469.95;232270;203;154505;-60
2024/02/27 02:18:13;;;;;;;44.20;25.00;;;;;;;9.29;70.74;98474.73;232177;204;139112;-60
2024/02/27 02:23:16;;;;;;;41.40;25.80;;;;;;;9.31;70.75;98485.79;232312;201;140942;-59
2024/02/27 02:28:20;;;;;;;42.50;26.50;;;;;;;9.33;70.46;98494.27;232091;204;153331;-58
2024/02/27 02:33:23;;;;;;;42.60;24.60;;;;;;;9.34;70.44;98497.08;232158;201;138672;-57
2024/02/27 02:38:27;;;;;;;42.50;25.20;;;;;;;9.34;70.66;98500.94;232195;200;138302;-59
2024/02/27 02:43:30;;;;;;;36.90;23.80;;;;;;;9.34;70.75;98513.52;232210;204;153877;-59
2024/02/27 02:48:33;;;;;;;41.70;24.70;;;;;;;9.31;71.05;98502.73;232136;201;138034;-60
2024/02/27 02:53:36;;;;;;;39.90;23.30;;;;;;;9.31;71.10;98508.44;232419;204;138062;-60
2024/02/27 02:58:40;;;;;;;34.80;22.60;;;;;;;9.30;71.17;98511.14;232248;204;153281;-60
2024/02/27 03:03:43;;;;;;;37.80;22.00;;;;;;;9.28;71.23;98521.18;232317;197;138187;-59
2024/02/27 03:08:47;;;;;;;40.60;22.70;;;;;;;9.26;71.30;98527.16;232338;201;138583;-60
2024/02/27 03:13:50;;;;;;;40.50;24.70;;;;;;;9.32;70.99;98520.77;232328;200;153168;-58
2024/02/27 03:18:54;;;;;;;46.60;27.60;;;;;;;9.32;70.67;98530.11;232452;204;141156;-59
2024/02/27 03:23:57;;;;;;;49.10;28.00;;;;;;;9.29;70.39;98538.10;232423;204;137750;-59
2024/02/27 03:29:00;;;;;;;50.00;28.50;;;;;;;9.24;70.23;98541.24;231921;200;153502;-60
2024/02/27 03:34:04;;;;;;;52.90;28.60;;;;;;;9.16;70.10;98544.42;232080;198;141185;-59
2024/02/27 03:39:07;;;;;;;49.50;27.00;;;;;;;9.10;70.18;98550.84;232327;197;139125;-59
2024/02/27 03:44:10;;;;;;;51.60;28.90;;;;;;;9.05;70.32;98557.70;232405;204;154253;-59
2024/02/27 03:49:13;;;;;;;51.70;28.70;;;;;;;9.02;70.50;98560.17;232387;198;137788;-60
2024/02/27 03:54:17;;;;;;;50.30;28.50;;;;;;;8.98;70.48;98560.77;232377;200;138283;-59
2024/02/27 03:59:20;;;;;;;42.20;26.10;;;;;;;8.98;70.95;98564.16;232306;204;153424;-59
2024/02/27 04:04:23;;;;;;;49.70;26.40;;;;;;;9.03;71.23;98562.29;232352;204;138237;-59
2024/02/27 04:09:26;;;;;;;42.10;26.00;;;;;;;9.11;71.61;98564.91;232374;201;139340;-59
2024/02/27 04:14:29;;;;;;;42.10;26.60;;;;;;;9.26;71.70;98558.46;232337;204;154345;-60
2024/02/27 04:19:33;;;;;;;36.30;25.80;;;;;;;9.37;71.39;98553.70;232359;201;138338;-59
2024/02/27 04:24:36;;;;;;;39.30;25.70;;;;;;;9.40;71.36;98559.66;232272;204;137646;-59
2024/02/27 04:29:42;;;;;;;38.70;26.40;;;;;;;9.43;71.26;98563.19;232400;197;154051;-60
2024/02/27 04:34:45;;;;;;;42.90;27.50;;;;;;;9.46;71.31;98562.81;232381;204;137879;-60
2024/02/27 04:39:49;;;;;;;40.00;27.10;;;;;;;9.50;71.29;98564.88;232228;204;140439;-60
2024/02/27 04:44:52;;;;;;;48.00;26.00;;;;;;;9.53;71.30;98566.80;232291;204;153298;-59
2024/02/27 04:49:55;;;;;;;55.30;26.30;;;;;;;9.55;71.39;98559.63;232023;198;138657;-59
2024/02/27 04:54:58;;;;;;;43.50;25.90;;;;;;;9.63;71.38;98562.42;232263;204;138237;-60
2024/02/27 05:00:04;;;;;;;45.10;27.80;;;;;;;9.70;71.32;98565.55;232357;197;154987;-60
2024/02/27 05:05:07;;;;;;;46.30;29.20;;;;;;;9.78;71.02;98566.05;232169;200;137743;-59
2024/02/27 05:10:11;;;;;;;44.50;27.20;;;;;;;9.81;70.32;98567.46;232407;200;137341;-59
2024/02/27 05:15:14;;;;;;;48.10;27.70;;;;;;;9.74;70.00;98568.96;232414;200;153681;-60
2024/02/27 05:20:17;;;;;;;42.00;27.30;;;;;;;9.67;70.12;98600.80;232400;200;138184;-59
2024/02/27 05:25:21;;;;;;;44.70;27.50;;;;;;;9.68;70.28;98601.25;232414;204;138182;-59
2024/02/27 05:30:24;;;;;;;51.50;27.90;;;;;;;9.73;70.22;98597.25;232406;201;154830;-59
2024/02/27 05:35:27;;;;;;;51.00;26.30;;;;;;;9.66;70.23;98600.29;232476;204;138133;-59
2024/02/27 05:40:30;;;;;;;443.00;325.30;;;;;;;9.65;70.78;98596.46;232310;200;138806;-60
2024/02/27 05:45:35;;;;;;;161.00;102.00;;;;;;;9.74;70.87;98592.90;232313;200;153190;-59
2024/02/27 05:50:38;;;;;;;160.10;111.10;;;;;;;9.82;70.94;98607.63;232321;200;137585;-60
2024/02/27 05:55:42;;;;;;;52.30;26.80;;;;;;;9.90;71.08;98615.60;232359;204;138653;-59
2024/02/27 06:00:45;;;;;;;41.30;27.50;;;;;;;9.99;70.80;98615.90;232353;204;153692;-61
2024/02/27 06:05:50;;;;;;;44.60;26.20;;;;;;;10.03;70.71;98616.51;232371;204;140542;-59
2024/02/27 06:10:53;;;;;;;44.10;25.30;;;;;;;10.03;70.82;98609.02;232432;204;137813;-60
2024/02/27 06:15:57;;;;;;;41.40;25.30;;;;;;;10.05;70.94;98617.44;232296;201;153187;-59
2024/02/27 06:26:23;;;;;;;41.20;26.20;;;;;;;10.34;72.08;98625.29;232346;204;139253;-60
2024/02/27 06:31:27;;;;;;;412.00;314.60;;;;;;;10.38;71.78;98631.89;232292;200;153991;-60
2024/02/27 06:36:30;;;;;;;40.40;23.80;;;;;;;10.50;71.78;98631.45;232271;204;138448;-61
2024/02/27 06:41:34;;;;;;;31.50;22.20;;;;;;;10.62;71.55;98631.67;232220;204;139175;-60
2024/02/27 06:46:37;;;;;;;35.90;22.60;;;;;;;10.66;71.29;98634.75;232251;200;153212;-59
2024/02/27 06:51:41;;;;;;;32.10;20.80;;;;;;;10.72;71.11;98639.14;232110;201;138688;-59
2024/02/27 06:56:44;;;;;;;33.90;21.70;;;;;;;10.78;71.06;98645.17;232291;204;140562;-59
2024/02/27 07:01:48;;;;;;;34.10;21.40;;;;;;;10.83;70.92;98650.27;232240;197;154239;-58
2024/02/27 07:06:51;;;;;;;33.00;21.50;;;;;;;10.87;70.96;98655.86;232263;204;138012;-57
2024/02/27 07:11:54;;;;;;;36.10;21.90;;;;;;;10.90;71.12;98656.00;232352;201;139014;-57
2024/02/27 07:16:57;;;;;;;31.30;19.50;;;;;;;10.95;71.14;98661.84;232428;200;153364;-56
2024/02/27 07:22:00;;;;;;;428.00;340.40;;;;;;;11.04;71.25;98670.46;232209;200;138388;-59
2024/02/27 07:27:04;;;;;;;37.30;24.60;;;;;;;11.24;71.15;98681.28;232310;204;140745;-58
2024/02/27 07:32:10;;;;;;;30.40;20.50;;;;;;;11.44;70.62;98683.83;232146;204;153652;-58
2024/02/27 07:37:15;;;;;;;41.20;26.70;;;;;;;11.58;70.34;98684.42;232216;204;139447;-59
2024/02/27 07:42:18;;;;;;;27.20;20.20;;;;;;;11.68;70.21;98684.59;232224;201;142222;-58
2024/02/27 07:47:21;;;;;;;29.00;19.60;;;;;;;11.71;69.73;98691.27;232387;204;153642;-59
2024/02/27 07:52:24;;;;;;;26.00;18.30;;;;;;;11.73;69.62;98695.35;232197;201;138212;-57
2024/02/27 07:57:27;;;;;;;26.30;19.00;;;;;;;11.75;69.17;98689.71;232196;201;138154;-59
2024/02/27 08:02:31;;;;;;;31.20;20.70;;;;;;;11.79;69.21;98689.30;232133;201;153900;-59
2024/02/27 08:07:34;;;;;;;27.90;19.40;;;;;;;11.83;69.11;98687.77;232154;197;137765;-57
2024/02/27 08:12:37;;;;;;;29.50;19.20;;;;;;;11.87;69.23;98688.91;232377;204;138151;-61
2024/02/27 08:17:42;;;;;;;29.30;18.50;;;;;;;11.92;69.24;98689.80;232414;204;153325;-60
2024/02/27 08:22:45;;;;;;;25.80;18.10;;;;;;;12.02;69.09;98685.10;231730;201;139761;-53
2024/02/27 08:27:48;;;;;;;27.80;18.20;;;;;;;12.15;69.10;98672.23;232154;204;137898;-54
2024/02/27 08:32:51;;;;;;;31.90;19.90;;;;;;;12.29;68.87;98680.11;232326;201;154007;-52
2024/02/27 08:37:58;;;;;;;59.30;38.70;;;;;;;12.51;69.88;98678.49;232300;201;139038;-54
2024/02/27 08:43:02;;;;;;;35.90;19.00;;;;;;;12.69;68.74;98669.42;232209;204;138222;-54
2024/02/27 08:48:05;;;;;;;29.90;17.40;;;;;;;12.69;68.24;98671.05;232393;197;154783;-56
2024/02/27 08:53:10;;;;;;;40.70;18.20;;;;;;;12.71;67.99;98679.05;232440;204;137656;-52
2024/02/27 08:58:13;;;;;;;34.50;19.30;;;;;;;12.74;67.94;98674.73;232354;200;137519;-55
2024/02/27 09:03:16;;;;;;;28.30;18.40;;;;;;;12.80;68.13;98677.11;232124;204;153373;-54
2024/02/27 09:08:20;;;;;;;29.00;17.80;;;;;;;12.86;67.94;98672.58;232101;200;138193;-55
2024/02/27 09:13:23;;;;;;;29.00;16.80;;;;;;;12.95;67.83;98678.31;232357;197;139591;-59
2024/02/27 09:18:26;;;;;;;79.90;51.50;;;;;;;13.18;68.77;98674.17;232319;204;153243;-59
2024/02/27 09:23:30;;;;;;;33.00;19.20;;;;;;;13.53;67.80;98666.61;232390;201;137839;-59
2024/02/27 09:28:33;;;;;;;38.00;18.80;;;;;;;13.64;66.75;98664.88;232442;200;138170;-61
2024/02/27 09:33:37;;;;;;;47.50;19.60;;;;;;;13.75;66.45;98662.87;232302;201;153781;-59
2024/02/27 09:38:40;;;;;;;47.80;21.70;;;;;;;13.86;66.07;98664.45;232374;204;137516;-62
2024/02/27 09:43:47;;;;;;;41.80;20.50;;;;;;;14.00;65.97;98669.59;232214;204;138709;-61
2024/02/27 09:48:52;;;;;;;43.30;21.20;;;;;;;14.11;65.69;98669.16;232457;197;153421;-61
2024/02/27 09:53:59;;;;;;;35.40;20.80;;;;;;;14.25;65.41;98673.91;232278;204;139860;-58
2024/02/27 09:59:03;;;;;;;32.00;18.10;;;;;;;14.38;65.12;98666.95;232271;201;139055;-56
2024/02/27 10:04:07;;;;;;;29.40;18.80;;;;;;;14.53;64.50;98671.49;232271;204;153283;-56
2024/02/27 10:09:14;;;;;;;35.40;18.40;;;;;;;14.61;64.49;98664.90;232293;204;138690;-57
2024/02/27 10:14:34;;;;;;;32.50;18.50;;;;;;;14.64;64.41;98668.53;232292;200;138360;-57
2024/02/27 10:19:38;;;;;;;113.70;84.90;;;;;;;14.79;65.43;98668.05;232356;200;153236;-58
2024/02/27 10:24:42;;;;;;;44.60;28.20;;;;;;;15.22;65.11;98665.74;232215;204;138789;-40
2024/02/27 10:29:45;;;;;;;28.30;17.80;;;;;;;15.88;67.42;98660.59;232400;204;138785;-72
2024/02/27 10:34:48;;;;;;;27.90;17.10;;;;;;;16.67;62.52;98653.85;232301;197;154186;-68
2024/02/27 10:39:56;;;;;;;25.90;16.30;;;;;;;16.82;61.24;98657.37;232228;196;137771;-66
2024/02/27 10:45:00;;;;;;;23.70;15.60;;;;;;;16.74;59.76;98659.00;232132;200;137698;-65
2024/02/27 10:50:08;;;;;;;43.70;27.10;;;;;;;16.70;59.52;98659.31;232240;201;154163;-65
2024/02/27 10:55:12;;;;;;;32.20;21.70;;;;;;;16.80;59.92;98657.20;232049;204;137383;-64
2024/02/27 11:00:16;;;;;;;32.80;15.10;;;;;;;16.92;59.08;98650.52;232072;201;138352;-65
2024/02/27 11:05:21;;;;;;;29.20;16.50;;;;;;;16.88;58.80;98654.67;232216;204;154059;-64
2024/02/27 11:10:27;;;;;;;31.70;17.50;;;;;;;17.01;58.83;98652.70;232223;197;139947;-63
2024/02/27 11:15:30;;;;;;;28.00;16.90;;;;;;;17.03;58.46;98653.39;232249;204;137590;-63
2024/02/27 11:20:35;;;;;;;25.60;17.50;;;;;;;16.94;58.33;98651.21;232256;204;154115;-63
2024/02/27 11:25:38;;;;;;;34.90;18.10;;;;;;;16.86;58.40;98650.35;232168;198;139929;-64
2024/02/27 11:30:46;;;;;;;30.00;15.90;;;;;;;16.83;58.57;98646.67;232257;204;138191;-63
2024/02/27 11:35:49;;;;;;;33.80;15.30;;;;;;;16.74;58.34;98649.90;232322;201;153289;-64
2024/02/27 11:40:54;;;;;;;152.80;111.20;;;;;;;16.71;58.96;98645.63;232288;204;137964;-63
2024/02/27 11:46:27;;;;;;;29.80;17.00;;;;;;;16.77;58.96;98642.61;232052;198;140976;-63
2024/02/27 11:51:34;;;;;;;26.70;14.20;;;;;;;16.73;58.57;98644.75;232299;197;154616;-64
2024/02/27 11:56:41;;;;;;;20.30;13.00;;;;;;;16.70;58.51;98639.25;232244;201;137681;-63
2024/02/27 12:02:06;;;;;;;17.90;13.00;;;;;;;16.71;58.50;98637.23;232257;204;137708;-63
2024/02/27 12:07:09;;;;;;;17.40;13.50;;;;;;;16.76;58.46;98635.48;232116;200;156151;-63
2024/02/27 12:12:13;;;;;;;18.70;13.10;;;;;;;16.88;58.63;98634.79;232276;204;138659;-63
2024/02/27 12:17:16;;;;;;;23.10;12.70;;;;;;;17.15;58.82;98635.58;232332;197;137768;-63
2024/02/27 12:22:19;;;;;;;23.70;13.40;;;;;;;17.65;58.35;98638.25;232158;204;153747;-62
2024/02/27 12:27:23;;;;;;;22.30;12.30;;;;;;;18.10;57.08;98629.44;232195;196;138481;-64
2024/02/27 12:32:27;;;;;;;22.70;12.20;;;;;;;18.49;56.29;98625.98;232041;203;138440;-63
2024/02/27 12:37:38;;;;;;;29.70;12.70;;;;;;;18.74;54.68;98620.58;232175;204;154178;-64
2024/02/27 12:42:46;;;;;;;18.40;11.80;;;;;;;18.80;53.69;98612.08;232196;204;139289;-63
2024/02/27 12:47:51;;;;;;;19.20;12.00;;;;;;;18.82;53.18;98605.95;232379;197;137710;-63
2024/02/27 12:53:01;;;;;;;19.50;11.50;;;;;;;18.73;52.92;98606.20;232219;199;154357;-63
2024/02/27 12:58:23;;;;;;;21.30;13.30;;;;;;;18.66;53.35;98608.29;232069;201;138536;-62
2024/02/27 13:03:27;;;;;;;21.30;13.10;;;;;;;18.61;53.88;98611.66;232212;200;137993;-63
2024/02/27 13:08:31;;;;;;;22.30;12.80;;;;;;;18.68;54.33;98609.90;232129;201;154074;-63
2024/02/27 13:13:35;;;;;;;23.60;12.30;;;;;;;18.87;54.30;98604.19;231985;201;138483;-62
2024/02/27 13:18:38;;;;;;;24.70;13.10;;;;;;;19.04;53.88;98609.59;232241;204;137549;-62
2024/02/27 13:23:41;;;;;;;21.20;11.80;;;;;;;19.17;53.13;98604.80;232416;200;153177;-62
2024/02/27 13:28:45;;;;;;;339.70;285.70;;;;;;;19.30;52.66;98606.19;232190;196;138301;-62
2024/02/27 13:33:49;;;;;;;40.70;29.90;;;;;;;19.45;54.87;98599.98;232086;204;138868;-57
2024/02/27 13:38:52;;;;;;;26.90;12.20;;;;;;;19.59;54.58;98598.02;231923;197;153935;-62
2024/02/27 13:43:56;;;;;;;22.90;11.90;;;;;;;19.50;52.83;98595.27;232050;204;138635;-62
2024/02/27 13:48:59;;;;;;;18.60;10.70;;;;;;;19.34;52.63;98598.17;232076;204;138640;-62
2024/02/27 13:54:03;;;;;;;19.40;10.70;;;;;;;19.21;52.37;98599.20;232129;204;153241;-63
2024/02/27 13:59:07;;;;;;;25.00;11.50;;;;;;;19.14;52.46;98596.83;232076;201;137982;-62
2024/02/27 14:04:10;;;;;;;25.20;10.80;;;;;;;19.14;52.87;98602.63;231823;198;138503;-62
2024/02/27 14:09:13;;;;;;;23.50;11.30;;;;;;;19.09;52.72;98602.06;232064;201;153184;-62
2024/02/27 14:14:17;;;;;;;20.60;11.50;;;;;;;19.00;52.99;98604.27;231926;204;138255;-62
2024/02/27 14:19:23;;;;;;;16.40;10.10;;;;;;;18.87;52.76;98605.26;232095;201;137718;-62
2024/02/27 14:24:27;;;;;;;20.10;10.80;;;;;;;18.74;52.81;98609.66;232055;198;152943;-62
2024/02/27 14:29:30;;;;;;;19.60;10.40;;;;;;;18.62;52.79;98613.86;232021;201;138330;-62
2024/02/27 14:34:33;;;;;;;91.20;74.20;;;;;;;18.55;53.12;98615.55;231900;197;138866;-62
2024/02/27 14:39:37;;;;;;;38.80;29.10;;;;;;;18.56;53.46;98615.79;231980;198;153042;-61
2024/02/27 14:44:40;;;;;;;23.90;12.10;;;;;;;18.53;53.13;98615.19;231876;199;139500;-62
2024/02/27 14:49:43;;;;;;;19.20;10.60;;;;;;;18.47;52.98;98618.67;231826;198;138328;-62
2024/02/27 14:54:54;;;;;;;95.80;75.60;;;;;;;18.41;53.44;98623.91;231967;201;153149;-62
2024/02/27 14:59:58;;;;;;;77.80;56.20;;;;;;;18.40;53.36;98616.14;231927;196;138315;-62
2024/02/27 15:05:01;;;;;;;28.50;13.50;;;;;;;18.32;53.27;98615.55;231973;197;137948;-63
2024/02/27 15:10:05;;;;;;;25.00;11.50;;;;;;;18.23;53.49;98621.34;231924;204;153492;-61
2024/02/27 15:15:09;;;;;;;63.50;45.30;;;;;;;18.14;53.54;98627.52;231820;204;138451;-62
2024/02/27 15:20:12;;;;;;;57.60;32.00;;;;;;;18.13;53.88;98628.95;231859;201;138912;-62
2024/02/27 15:25:16;;;;;;;41.00;16.80;;;;;;;18.05;53.83;98628.81;232026;201;153105;-61
2024/02/27 15:30:21;;;;;;;42.70;11.90;;;;;;;17.94;53.78;98634.06;231976;201;138167;-62
2024/02/27 15:35:27;;;;;;;145.10;91.50;;;;;;;17.85;54.14;98640.29;232088;201;138193;-62
2024/02/27 15:40:31;;;;;;;70.30;32.40;;;;;;;17.82;54.33;98646.05;232034;201;153588;-61
2024/02/27 15:45:34;;;;;;;46.20;13.40;;;;;;;17.72;54.18;98650.71;231908;202;138394;-61
2024/02/27 15:50:38;;;;;;;43.40;12.20;;;;;;;17.60;54.54;98656.52;231936;201;138562;-61
2024/02/27 15:55:41;;;;;;;55.50;26.80;;;;;;;17.50;54.65;98656.63;231959;201;153340;-62
2024/02/27 16:00:44;;;;;;;59.30;22.40;;;;;;;17.41;55.12;98658.39;231954;197;138373;-61
2024/02/27 16:05:49;;;;;;;42.70;15.90;;;;;;;17.30;55.42;98662.52;232126;198;139102;-61
2024/02/27 16:10:53;;;;;;;51.60;16.90;;;;;;;17.17;55.64;98665.39;231931;198;153523;-61
2024/02/27 16:15:56;;;;;;;48.40;17.90;;;;;;;17.02;56.12;98665.14;231955;202;137892;-61
2024/02/27 16:21:00;;;;;;;51.40;17.50;;;;;;;16.88;56.55;98666.16;232008;204;138317;-61
2024/02/27 16:26:03;;;;;;;53.60;18.90;;;;;;;16.75;57.06;98668.80;231928;198;153142;-52
2024/02/27 16:31:08;;;;;;;67.30;20.50;;;;;;;16.62;57.42;98669.05;231805;198;142524;-51
2024/02/27 16:36:11;;;;;;;56.70;19.70;;;;;;;16.51;57.70;98671.70;232067;198;137421;-49
2024/02/27 16:41:15;;;;;;;126.40;71.30;;;;;;;16.40;58.24;98676.33;232274;204;153230;-50
2024/02/27 16:46:18;;;;;;;52.00;21.30;;;;;;;16.32;58.47;98683.30;232000;201;137847;-49
2024/02/27 16:51:22;;;;;;;65.60;21.10;;;;;;;16.17;58.60;98693.23;231848;201;139578;-51
2024/02/27 16:56:25;;;;;;;67.80;20.20;;;;;;;16.03;58.89;98697.40;231939;200;153321;-50
2024/02/27 17:01:28;;;;;;;64.90;21.30;;;;;;;15.87;59.42;98706.50;231954;198;139037;-53
2024/02/27 17:06:32;;;;;;;65.30;20.90;;;;;;;15.76;59.84;98712.88;232148;204;140336;-50
2024/02/27 17:11:36;;;;;;;96.10;45.00;;;;;;;15.70;60.80;98718.91;232324;197;153261;-49
2024/02/27 17:16:39;;;;;;;76.80;22.50;;;;;;;15.67;60.75;98722.23;232047;201;137914;-53
2024/02/27 17:21:43;;;;;;;71.30;20.90;;;;;;;15.59;61.03;98723.59;232166;201;138282;-52
2024/02/27 17:26:46;;;;;;;200.70;96.80;;;;;;;15.57;61.57;98726.70;232087;204;152991;-49
2024/02/27 17:31:49;;;;;;;73.30;29.70;;;;;;;15.57;61.65;98730.55;232013;197;138802;-52
2024/02/27 17:36:53;;;;;;;54.40;21.70;;;;;;;15.54;61.71;98735.34;232067;201;138308;-52
2024/02/27 17:41:56;;;;;;;51.50;22.10;;;;;;;15.48;61.50;98735.30;231841;199;153538;-51
2024/02/27 17:47:00;;;;;;;54.50;21.80;;;;;;;15.42;61.66;98738.02;231988;204;138162;-51
2024/02/27 17:52:05;;;;;;;48.40;21.40;;;;;;;15.35;61.75;98744.14;232049;204;137962;-51
2024/02/27 17:57:08;;;;;;;52.40;20.60;;;;;;;15.27;61.77;98748.55;231959;197;154002;-50
2024/02/27 18:02:13;;;;;;;57.40;20.10;;;;;;;15.18;61.96;98749.55;232029;201;138330;-51
2024/02/27 18:07:17;;;;;;;58.70;20.40;;;;;;;15.10;62.42;98750.02;232063;204;138081;-49
2024/02/27 18:12:20;;;;;;;59.40;20.30;;;;;;;15.12;63.06;98751.61;232074;204;153168;-49
2024/02/27 18:17:23;;;;;;;53.00;20.90;;;;;;;15.05;62.80;98755.46;232069;201;141378;-47
2024/02/27 18:22:26;;;;;;;58.90;21.10;;;;;;;14.97;62.85;98759.70;232089;204;137953;-51
2024/02/27 18:27:30;;;;;;;48.60;20.50;;;;;;;14.88;63.06;98758.98;232060;204;155033;-50
2024/02/27 18:32:34;;;;;;;61.80;20.70;;;;;;;14.82;63.33;98763.86;232065;200;138146;-51
2024/02/27 18:37:37;;;;;;;55.90;19.40;;;;;;;14.76;63.35;98767.85;232004;204;138281;-47
2024/02/27 18:42:48;;;;;;;49.80;19.50;;;;;;;14.73;63.48;98770.33;232132;205;152969;-47
2024/02/27 18:47:52;;;;;;;57.50;19.90;;;;;;;14.71;63.61;98771.92;232122;198;138664;-49
2024/02/27 18:52:55;;;;;;;50.00;21.00;;;;;;;14.69;63.58;98775.63;231822;204;138574;-53
2024/02/27 18:57:59;;;;;;;56.00;20.90;;;;;;;14.66;63.55;98775.89;232191;204;154994;-51
2024/02/27 19:03:03;;;;;;;74.60;21.70;;;;;;;14.62;63.75;98776.22;231891;198;140116;-52
2024/02/27 19:08:07;;;;;;;69.90;20.50;;;;;;;14.50;63.84;98780.79;232082;201;138325;-51
2024/02/27 19:13:11;;;;;;;69.50;21.90;;;;;;;14.43;64.15;98784.55;232210;200;153562;-52
2024/02/27 19:18:18;;;;;;;67.60;22.80;;;;;;;14.42;64.22;98790.30;232328;200;138742;-52
2024/02/27 19:23:21;;;;;;;80.20;23.10;;;;;;;14.41;64.32;98796.64;232424;204;138265;-52
2024/02/27 19:28:25;;;;;;;70.40;22.30;;;;;;;14.36;64.43;98796.48;232270;196;154008;-52
2024/02/27 19:33:28;;;;;;;75.00;22.40;;;;;;;14.31;64.59;98802.46;232123;201;137986;-51
2024/02/27 19:38:31;;;;;;;73.60;24.40;;;;;;;14.23;64.91;98807.58;232203;203;139204;-48
2024/02/27 19:43:35;;;;;;;85.40;24.50;;;;;;;14.16;65.10;98804.88;232310;203;153503;-50
2024/02/27 19:48:39;;;;;;;102.10;28.20;;;;;;;14.08;65.31;98803.25;232309;200;140023;-50
2024/02/27 19:53:43;;;;;;;101.40;26.70;;;;;;;14.01;65.42;98803.62;232317;204;139925;-50
2024/02/27 19:58:46;;;;;;;75.80;26.50;;;;;;;13.93;65.52;98804.43;232134;201;153752;-52
2024/02/27 20:03:50;;;;;;;79.80;28.00;;;;;;;13.92;65.61;98805.41;231958;197;142755;-52
2024/02/27 20:08:53;;;;;;;93.70;30.50;;;;;;;13.88;65.77;98810.20;231897;204;137686;-53
2024/02/27 20:13:56;;;;;;;84.30;32.30;;;;;;;13.85;65.83;98816.70;232089;200;153487;-50
2024/02/27 20:19:03;;;;;;;87.30;32.90;;;;;;;13.85;65.97;98818.98;232219;204;138924;-51
2024/02/27 20:24:10;;;;;;;72.10;32.00;;;;;;;13.80;65.79;98821.02;232120;204;138457;-53
2024/02/27 20:29:13;;;;;;;71.60;29.80;;;;;;;13.78;66.06;98822.61;232301;204;154115;-48
2024/02/27 20:34:17;;;;;;;499.40;372.70;;;;;;;13.81;66.62;98830.01;232148;204;138829;-54
2024/02/27 20:39:20;;;;;;;83.80;35.40;;;;;;;13.86;66.94;98835.69;232105;201;137950;-52
2024/02/27 20:44:23;;;;;;;73.50;32.80;;;;;;;13.81;66.55;98838.39;232079;197;153946;-51
2024/02/27 20:49:27;;;;;;;72.40;30.70;;;;;;;13.77;66.57;98841.61;232231;201;139209;-54
2024/02/27 20:54:30;;;;;;;71.90;38.90;;;;;;;13.74;66.71;98843.59;232188;200;138538;-52
2024/02/27 20:59:34;;;;;;;86.10;34.90;;;;;;;13.86;68.34;98847.95;232220;201;154075;-51
2024/02/27 21:04:37;;;;;;;70.60;30.70;;;;;;;14.17;68.93;98849.09;231975;202;139085;-51
2024/02/27 21:09:40;;;;;;;76.60;34.50;;;;;;;14.36;66.53;98859.15;231984;198;138815;-52
2024/02/27 21:14:44;;;;;;;76.60;34.10;;;;;;;14.28;66.06;98869.66;232161;204;154999;-53
2024/02/27 21:19:47;;;;;;;71.20;31.40;;;;;;;14.17;65.96;98882.12;231987;198;137635;-53
2024/02/27 21:24:50;;;;;;;68.40;29.20;;;;;;;14.08;65.95;98888.89;232251;204;139013;-53
2024/02/27 21:29:53;;;;;;;67.30;28.10;;;;;;;13.96;66.48;98885.53;232268;200;153372;-52
2024/02/27 21:34:57;;;;;;;57.20;27.20;;;;;;;13.95;66.52;98888.85;232104;201;138331;-51
2024/02/27 21:40:00;;;;;;;39.30;22.50;;;;;;;13.94;66.71;98887.50;232046;198;138001;-52
2024/02/27 21:45:05;;;;;;;39.50;23.20;;;;;;;14.05;65.90;98889.98;232150;204;153510;-51
2024/02/27 21:50:10;;;;;;;37.80;22.30;;;;;;;14.20;65.62;98891.48;232183;204;139919;-52
2024/02/27 21:55:14;;;;;;;43.60;23.10;;;;;;;14.30;65.19;98887.86;232246;198;138805;-51
2024/02/27 22:00:18;;;;;;;36.00;21.50;;;;;;;14.30;65.15;98883.23;232212;201;153210;-50
2024/02/27 22:05:22;;;;;;;33.70;18.60;;;;;;;14.33;65.00;98883.83;232324;204;138378;-51
2024/02/27 22:10:25;;;;;;;33.70;16.10;;;;;;;14.37;64.71;98875.85;232099;201;138556;-51
2024/02/27 22:15:28;;;;;;;30.90;17.30;;;;;;;14.43;64.46;98875.58;232137;201;153261;-50
2024/02/27 22:20:32;;;;;;;29.40;16.40;;;;;;;14.48;64.23;98876.96;232125;201;137888;-50
2024/02/27 22:25:35;;;;;;;27.30;17.50;;;;;;;14.54;64.07;98879.18;232013;198;138195;-51
2024/02/27 22:30:38;;;;;;;30.20;17.80;;;;;;;14.57;63.81;98880.20;231997;198;153114;-51
2024/02/27 22:35:42;;;;;;;32.00;18.60;;;;;;;14.58;63.68;98883.89;232272;201;138244;-51
2024/02/27 22:40:45;;;;;;;37.50;21.30;;;;;;;14.56;63.75;98892.02;232080;198;138521;-51
2024/02/27 22:45:48;;;;;;;47.50;25.90;;;;;;;14.45;64.38;98897.91;232001;204;153219;-51
2024/02/27 22:50:52;;;;;;;49.00;29.60;;;;;;;14.21;64.85;98897.13;232143;204;138211;-53
2024/02/27 22:55:55;;;;;;;48.10;26.80;;;;;;;13.97;65.52;98895.27;232058;204;138350;-50
2024/02/27 23:00:59;;;;;;;45.70;26.90;;;;;;;13.80;66.07;98896.81;232168;201;154282;-51
2024/02/27 23:06:06;;;;;;;41.30;25.80;;;;;;;13.71;66.57;98895.34;232113;196;138845;-50
2024/02/27 23:11:10;;;;;;;46.90;27.40;;;;;;;13.68;66.94;98898.39;232062;197;138421;-51